createdAt,value
2018-05-31T00:01:12.655Z,94.10
2018-05-31T00:03:40.958Z,94.10
2018-05-31T00:06:09.293Z,93.90
2018-05-31T00:08:37.592Z,94.00
2018-05-31T00:11:05.916Z,94.20
2018-05-31T00:13:34.228Z,94.30
2018-05-31T00:16:02.570Z,94.40
2018-05-31T00:18:30.879Z,94.20
2018-05-31T00:20:59.211Z,94.30
2018-05-31T00:23:27.508Z,94.40
2018-05-31T00:25:55.843Z,94.60
2018-05-31T00:28:24.149Z,94.70
2018-05-31T00:30:52.487Z,94.70
2018-05-31T00:33:20.803Z,94.80
2018-05-31T00:35:49.132Z,95.00
2018-05-31T00:38:17.448Z,95.20
2018-05-31T00:40:45.767Z,94.60
2018-05-31T00:43:14.072Z,94.00
2018-05-31T00:45:42.390Z,93.40
2018-05-31T00:48:09.924Z,93.40
2018-05-31T00:50:38.258Z,93.10
2018-05-31T00:53:06.558Z,92.50
2018-05-31T00:55:46.805Z,92.30
2018-05-31T00:58:15.111Z,92.10
2018-05-31T01:00:43.447Z,91.90
2018-05-31T01:03:11.763Z,91.80
2018-05-31T01:05:40.091Z,91.70
2018-05-31T01:08:08.391Z,91.60
2018-05-31T01:10:36.723Z,91.50
2018-05-31T01:13:05.036Z,91.50
2018-05-31T01:15:33.375Z,91.40
2018-05-31T01:18:01.711Z,91.40
2018-05-31T01:20:30.012Z,91.50
2018-05-31T01:22:58.316Z,91.50
2018-05-31T01:25:26.643Z,91.40
2018-05-31T01:27:54.954Z,91.30
2018-05-31T01:30:23.278Z,91.30
2018-05-31T01:32:51.575Z,91.30
2018-05-31T01:35:19.910Z,91.30
2018-05-31T01:37:48.218Z,91.60
2018-05-31T01:40:16.520Z,91.70
2018-05-31T01:42:44.846Z,91.80
2018-05-31T01:45:13.151Z,91.80
2018-05-31T01:47:41.495Z,91.60
2018-05-31T01:50:09.794Z,91.40
2018-05-31T01:52:38.115Z,91.20
2018-05-31T01:55:06.411Z,91.00
2018-05-31T01:57:34.738Z,90.90
2018-05-31T02:00:03.075Z,90.90
2018-05-31T02:02:31.407Z,90.90
2018-05-31T02:04:59.711Z,90.90
2018-05-31T02:07:28.030Z,90.90
2018-05-31T02:09:56.327Z,90.60
2018-05-31T02:12:24.652Z,90.40
2018-05-31T02:14:52.962Z,89.80
2018-05-31T02:17:21.290Z,89.30
2018-05-31T02:19:49.602Z,88.60
2018-05-31T02:22:17.934Z,88.70
2018-05-31T02:24:46.245Z,88.80
2018-05-31T02:27:14.565Z,89.00
2018-05-31T02:29:42.866Z,89.20
2018-05-31T02:32:11.189Z,89.30
2018-05-31T02:34:39.483Z,89.30
2018-05-31T02:37:07.799Z,89.00
2018-05-31T02:39:36.106Z,89.10
2018-05-31T02:42:04.440Z,89.30
2018-05-31T02:44:32.738Z,90.00
2018-05-31T02:47:01.064Z,90.60
2018-05-31T02:49:29.367Z,90.10
2018-05-31T02:51:57.697Z,90.20
2018-05-31T02:54:26.006Z,90.40
2018-05-31T02:56:54.330Z,90.60
2018-05-31T02:59:22.631Z,90.50
2018-05-31T03:01:50.955Z,90.70
2018-05-31T03:04:19.258Z,90.30
2018-05-31T03:06:47.582Z,90.20
2018-05-31T03:09:15.892Z,90.30
2018-05-31T03:11:44.218Z,90.60
2018-05-31T03:14:12.526Z,90.80
2018-05-31T03:16:40.855Z,90.60
2018-05-31T03:19:09.155Z,90.30
2018-05-31T03:21:37.479Z,90.30
2018-05-31T03:24:05.769Z,90.30
2018-05-31T03:26:34.084Z,90.30
2018-05-31T03:29:02.447Z,90.30
2018-05-31T03:31:30.750Z,90.20
2018-05-31T03:33:59.064Z,90.20
2018-05-31T03:36:27.367Z,90.30
2018-05-31T03:38:55.694Z,90.40
2018-05-31T03:41:32.098Z,90.70
2018-05-31T03:44:00.422Z,90.80
2018-05-31T03:46:28.718Z,90.70
2018-05-31T03:48:57.039Z,90.70
2018-05-31T03:51:25.342Z,90.90
2018-05-31T03:53:53.671Z,91.00
2018-05-31T03:56:21.975Z,91.10
2018-05-31T03:58:50.307Z,91.10
2018-05-31T04:01:18.616Z,91.10
2018-05-31T04:03:46.946Z,91.30
2018-05-31T04:06:15.238Z,91.50
2018-05-31T04:08:43.559Z,91.60
2018-05-31T04:11:11.855Z,91.70
2018-05-31T04:13:40.180Z,91.90
2018-05-31T04:16:08.482Z,91.80
2018-05-31T04:18:36.807Z,91.70
2018-05-31T04:21:05.106Z,91.70
2018-05-31T04:23:33.422Z,91.70
2018-05-31T04:26:01.723Z,92.00
2018-05-31T04:28:30.058Z,92.20
2018-05-31T04:30:58.366Z,92.40
2018-05-31T04:33:26.689Z,92.50
2018-05-31T04:35:54.986Z,91.60
2018-05-31T04:38:23.315Z,91.30
2018-05-31T04:40:51.615Z,91.30
2018-05-31T04:43:19.943Z,91.20
2018-05-31T04:45:48.242Z,91.30
2018-05-31T04:48:16.571Z,91.40
2018-05-31T04:50:44.874Z,91.50
2018-05-31T04:53:13.195Z,91.80
2018-05-31T04:55:41.504Z,92.10
2018-05-31T04:58:09.831Z,92.30
2018-05-31T05:00:38.141Z,92.50
2018-05-31T05:03:06.471Z,92.70
2018-05-31T05:05:34.775Z,92.80
2018-05-31T05:08:03.352Z,92.90
2018-05-31T05:10:32.646Z,93.00
2018-05-31T05:13:00.966Z,92.90
2018-05-31T05:15:29.273Z,92.80
2018-05-31T05:17:57.595Z,92.80
2018-05-31T05:20:26.534Z,92.80
2018-05-31T05:22:54.831Z,92.80
2018-05-31T05:25:23.163Z,92.70
2018-05-31T05:27:51.457Z,92.80
2018-05-31T05:30:19.774Z,92.80
2018-05-31T05:32:48.079Z,92.80
2018-05-31T05:35:16.403Z,92.80
2018-05-31T05:37:44.698Z,92.80
2018-05-31T05:40:13.013Z,92.70
2018-05-31T05:42:41.327Z,92.60
2018-05-31T05:45:09.659Z,92.30
2018-05-31T05:47:37.962Z,92.10
2018-05-31T05:50:06.313Z,92.10
2018-05-31T05:52:34.597Z,91.70
2018-05-31T05:55:02.159Z,91.70
2018-05-31T05:57:30.463Z,90.50
2018-05-31T05:59:58.795Z,90.20
2018-05-31T06:02:27.097Z,90.20
2018-05-31T06:04:55.414Z,89.50
2018-05-31T06:07:23.714Z,87.80
2018-05-31T06:09:52.069Z,87.50
2018-05-31T06:12:20.343Z,87.10
2018-05-31T06:14:48.660Z,87.40
2018-05-31T06:17:16.962Z,87.60
2018-05-31T06:19:45.308Z,87.30
2018-05-31T06:22:13.593Z,87.60
2018-05-31T06:24:41.915Z,87.40
2018-05-31T06:27:10.215Z,87.20
2018-05-31T06:29:38.540Z,86.80
2018-05-31T06:32:06.855Z,86.70
2018-05-31T06:34:35.196Z,87.10
2018-05-31T06:37:03.484Z,86.90
2018-05-31T06:39:31.799Z,86.10
2018-05-31T06:42:00.090Z,85.40
2018-05-31T06:44:28.402Z,84.40
2018-05-31T06:46:56.702Z,84.00
2018-05-31T06:49:25.011Z,83.40
2018-05-31T06:51:53.303Z,82.60
2018-05-31T06:54:21.645Z,81.90
2018-05-31T06:56:49.915Z,81.70
2018-05-31T06:59:18.231Z,80.90
2018-05-31T07:01:46.524Z,80.00
2018-05-31T07:04:14.818Z,79.70
2018-05-31T07:06:43.143Z,79.50
2018-05-31T07:09:11.435Z,78.90
2018-05-31T07:11:39.803Z,78.60
2018-05-31T07:14:08.129Z,78.60
2018-05-31T07:16:36.446Z,79.20
2018-05-31T07:19:04.730Z,77.90
2018-05-31T07:21:33.078Z,78.60
2018-05-31T07:24:01.371Z,78.50
2018-05-31T07:26:29.692Z,78.40
2018-05-31T07:28:57.988Z,77.90
2018-05-31T07:31:26.307Z,78.90
2018-05-31T07:33:54.598Z,79.70
2018-05-31T07:36:22.903Z,79.30
2018-05-31T07:38:51.402Z,78.60
2018-05-31T07:41:19.719Z,78.80
2018-05-31T07:43:47.238Z,78.80
2018-05-31T07:46:15.555Z,80.60
2018-05-31T07:48:43.838Z,80.70
2018-05-31T07:51:12.201Z,80.80
2018-05-31T07:53:40.613Z,80.90
2018-05-31T07:56:08.950Z,81.70
2018-05-31T07:58:37.348Z,82.20
2018-05-31T08:01:05.678Z,82.60
2018-05-31T08:03:33.206Z,82.60
2018-05-31T08:06:01.582Z,82.40
2018-05-31T08:08:29.835Z,82.20
2018-05-31T08:10:58.154Z,81.40
2018-05-31T08:13:26.448Z,81.30
2018-05-31T08:15:54.759Z,80.60
2018-05-31T08:18:23.061Z,79.80
2018-05-31T08:20:51.351Z,79.10
2018-05-31T08:23:19.671Z,78.60
2018-05-31T08:25:47.971Z,78.70
2018-05-31T08:28:16.299Z,78.30
2018-05-31T08:30:44.599Z,77.20
2018-05-31T08:33:12.906Z,77.30
2018-05-31T08:35:41.203Z,77.40
2018-05-31T08:38:09.520Z,77.30
2018-05-31T08:40:37.812Z,77.30
2018-05-31T08:43:06.123Z,78.00
2018-05-31T08:45:34.419Z,79.20
2018-05-31T08:48:02.774Z,79.70
2018-05-31T08:50:31.075Z,79.70
2018-05-31T08:52:59.387Z,80.30
2018-05-31T08:55:27.691Z,81.30
2018-05-31T08:57:56.006Z,81.90
2018-05-31T09:00:24.295Z,81.50
2018-05-31T09:02:52.608Z,81.20
2018-05-31T09:05:20.902Z,80.70
2018-05-31T09:07:48.455Z,80.70
2018-05-31T09:10:16.747Z,80.60
2018-05-31T09:12:45.055Z,79.80
2018-05-31T09:15:13.373Z,80.00
2018-05-31T09:17:41.678Z,78.60
2018-05-31T09:20:09.966Z,77.80
2018-05-31T09:22:38.282Z,76.60
2018-05-31T09:25:06.570Z,76.10
2018-05-31T09:27:34.885Z,75.60
2018-05-31T09:30:03.179Z,74.30
2018-05-31T09:32:31.495Z,73.80
2018-05-31T09:34:59.827Z,73.70
2018-05-31T09:37:28.119Z,74.00
2018-05-31T09:39:56.414Z,73.40
2018-05-31T09:42:24.723Z,73.30
2018-05-31T09:44:53.014Z,73.20
2018-05-31T09:47:21.326Z,71.60
2018-05-31T09:49:49.615Z,70.20
2018-05-31T09:52:17.934Z,69.20
2018-05-31T09:54:46.252Z,67.20
2018-05-31T09:57:13.778Z,67.20
2018-05-31T09:59:42.088Z,67.20
2018-05-31T10:02:10.387Z,67.30
2018-05-31T10:04:39.635Z,68.30
2018-05-31T10:07:07.159Z,68.40
2018-05-31T10:09:35.463Z,68.20
2018-05-31T10:12:03.754Z,67.30
2018-05-31T10:14:32.067Z,66.00
2018-05-31T10:17:00.359Z,65.60
2018-05-31T10:19:28.670Z,64.50
2018-05-31T10:21:56.954Z,63.30
2018-05-31T10:24:25.266Z,62.50
2018-05-31T10:26:53.559Z,61.70
2018-05-31T10:29:21.891Z,60.00
2018-05-31T10:31:50.183Z,59.50
2018-05-31T10:34:17.731Z,59.50
2018-05-31T10:36:46.025Z,58.40
2018-05-31T10:39:14.333Z,57.30
2018-05-31T10:41:42.623Z,56.90
2018-05-31T10:44:10.940Z,56.70
2018-05-31T10:46:39.224Z,56.20
2018-05-31T10:49:07.538Z,56.00
2018-05-31T10:51:35.827Z,55.10
2018-05-31T10:54:04.137Z,55.30
2018-05-31T10:56:32.469Z,55.90
2018-05-31T10:59:00.787Z,56.60
2018-05-31T11:01:29.078Z,56.30
2018-05-31T11:03:57.390Z,55.60
2018-05-31T11:06:25.687Z,54.40
2018-05-31T11:08:54.006Z,53.10
2018-05-31T11:11:22.300Z,52.00
2018-05-31T11:13:50.615Z,51.70
2018-05-31T11:16:18.899Z,51.60
2018-05-31T11:18:47.227Z,51.00
2018-05-31T11:21:15.526Z,51.30
2018-05-31T11:23:43.843Z,51.90
2018-05-31T11:26:12.134Z,51.60
2018-05-31T11:28:40.466Z,51.10
2018-05-31T11:31:08.759Z,51.80
2018-05-31T11:33:37.046Z,51.50
2018-05-31T11:36:04.586Z,51.40
2018-05-31T11:38:32.105Z,51.10
2018-05-31T11:41:00.414Z,50.60
2018-05-31T11:43:28.709Z,49.20
2018-05-31T11:45:57.022Z,47.70
2018-05-31T11:48:25.315Z,46.50
2018-05-31T11:50:53.636Z,46.60
2018-05-31T11:53:21.918Z,46.60
2018-05-31T11:55:50.223Z,45.00
2018-05-31T11:58:18.516Z,43.00
2018-05-31T12:00:46.831Z,42.00
2018-05-31T12:03:15.126Z,41.00
2018-05-31T12:05:42.679Z,40.90
2018-05-31T12:08:11.032Z,40.30
2018-05-31T12:10:39.299Z,40.20
2018-05-31T12:13:07.587Z,40.00
2018-05-31T12:15:35.903Z,39.00
2018-05-31T12:18:04.192Z,38.00
2018-05-31T12:20:32.507Z,37.90
2018-05-31T12:23:00.822Z,36.70
2018-05-31T12:25:29.167Z,36.40
2018-05-31T12:27:57.447Z,37.40
2018-05-31T12:30:25.763Z,36.80
2018-05-31T12:32:54.053Z,36.40
2018-05-31T12:35:22.357Z,36.80
2018-05-31T12:37:50.647Z,35.20
2018-05-31T12:40:18.950Z,34.90
2018-05-31T12:42:47.234Z,34.30
2018-05-31T12:45:15.555Z,34.90
2018-05-31T12:47:43.106Z,34.90
2018-05-31T12:50:11.418Z,34.80
2018-05-31T12:52:38.938Z,34.80
2018-05-31T12:55:07.255Z,35.80
2018-05-31T12:57:34.787Z,35.80
2018-05-31T13:00:03.123Z,38.90
2018-05-31T13:02:31.415Z,39.00
2018-05-31T13:04:59.718Z,39.40
2018-05-31T13:07:28.024Z,39.10
2018-05-31T13:09:56.322Z,40.70
2018-05-31T13:12:24.630Z,41.50
2018-05-31T13:14:53.499Z,40.90
2018-05-31T13:17:21.814Z,40.20
2018-05-31T13:19:50.102Z,39.90
2018-05-31T13:22:18.415Z,39.00
2018-05-31T13:24:46.707Z,39.80
2018-05-31T13:27:15.022Z,40.50
2018-05-31T13:29:43.311Z,40.70
2018-05-31T13:32:11.623Z,39.50
2018-05-31T13:34:39.919Z,40.00
2018-05-31T13:37:08.232Z,40.50
2018-05-31T13:39:36.523Z,38.50
2018-05-31T13:42:04.834Z,36.80
2018-05-31T13:44:33.158Z,36.40
2018-05-31T13:47:01.487Z,36.60
2018-05-31T13:49:29.787Z,36.40
2018-05-31T13:51:58.095Z,36.40
2018-05-31T13:54:26.427Z,36.90
2018-05-31T13:56:54.733Z,37.20
2018-05-31T13:59:23.144Z,36.10
2018-05-31T14:01:51.463Z,34.10
2018-05-31T14:04:19.864Z,34.40
2018-05-31T14:06:48.199Z,34.30
2018-05-31T14:09:16.527Z,34.80
2018-05-31T14:11:44.924Z,35.10
2018-05-31T14:14:13.246Z,35.90
2018-05-31T14:16:41.643Z,36.90
2018-05-31T14:19:09.223Z,36.90
2018-05-31T14:21:37.570Z,37.80
2018-05-31T14:24:05.915Z,38.30
2018-05-31T14:26:34.361Z,39.30
2018-05-31T14:29:02.813Z,39.80
2018-05-31T14:31:31.261Z,40.00
2018-05-31T14:33:59.675Z,40.00
2018-05-31T14:36:28.106Z,39.00
2018-05-31T14:38:55.694Z,38.90
2018-05-31T14:41:24.088Z,36.60
2018-05-31T14:43:52.454Z,35.90
2018-05-31T14:46:20.783Z,35.40
2018-05-31T14:48:49.080Z,36.30
2018-05-31T14:51:17.378Z,38.80
2018-05-31T14:53:45.690Z,38.50
2018-05-31T14:56:13.987Z,38.20
2018-05-31T14:58:42.294Z,39.10
2018-05-31T15:01:10.589Z,38.80
2018-05-31T15:03:38.902Z,39.20
2018-05-31T15:06:06.462Z,39.20
2018-05-31T15:08:34.779Z,42.30
2018-05-31T15:11:03.103Z,43.40
2018-05-31T15:13:30.652Z,43.40
2018-05-31T15:15:58.944Z,45.20
2018-05-31T15:18:27.254Z,45.00
2018-05-31T15:20:55.547Z,45.10
2018-05-31T15:23:23.859Z,45.80
2018-05-31T15:25:52.162Z,46.00
2018-05-31T15:28:20.466Z,46.40
2018-05-31T15:30:48.761Z,46.50
2018-05-31T15:33:17.067Z,47.30
2018-05-31T15:35:45.366Z,47.60
2018-05-31T15:38:12.925Z,48.30
2018-05-31T15:40:41.224Z,47.70
2018-05-31T15:43:09.557Z,47.50
2018-05-31T15:45:37.850Z,47.50
2018-05-31T15:48:05.451Z,47.40
2018-05-31T15:50:33.740Z,48.30
2018-05-31T15:53:02.058Z,49.10
2018-05-31T15:55:30.358Z,49.70
2018-05-31T15:57:58.675Z,50.30
2018-05-31T16:00:26.962Z,50.30
2018-05-31T16:02:55.262Z,50.60
2018-05-31T16:05:23.558Z,51.10
2018-05-31T16:07:51.870Z,51.20
2018-05-31T16:10:20.163Z,52.80
2018-05-31T16:12:48.476Z,53.30
2018-05-31T16:15:16.766Z,53.80
2018-05-31T16:17:45.083Z,53.30
2018-05-31T16:20:13.370Z,53.80
2018-05-31T16:22:41.686Z,54.40
2018-05-31T16:25:09.979Z,55.00
2018-05-31T16:27:38.270Z,55.30
2018-05-31T16:30:06.606Z,55.90
2018-05-31T16:32:34.899Z,56.80
2018-05-31T16:35:03.263Z,57.40
2018-05-31T16:37:31.547Z,57.90
2018-05-31T16:39:59.861Z,58.40
2018-05-31T16:42:28.150Z,59.20
2018-05-31T16:44:56.463Z,59.00
2018-05-31T16:47:23.994Z,59.00
2018-05-31T16:49:52.310Z,59.50
2018-05-31T16:52:20.656Z,59.40
2018-05-31T16:54:48.983Z,60.00
2018-05-31T16:57:17.278Z,60.70
2018-05-31T16:59:46.454Z,61.30
2018-05-31T17:02:14.752Z,61.60
2018-05-31T17:04:43.079Z,61.00
2018-05-31T17:07:11.427Z,61.10
2018-05-31T17:09:39.735Z,61.10
2018-05-31T17:12:08.032Z,61.50
2018-05-31T17:14:36.354Z,62.30
2018-05-31T17:17:04.652Z,63.30
2018-05-31T17:19:32.971Z,64.20
2018-05-31T17:22:01.274Z,64.90
2018-05-31T17:24:29.587Z,65.40
2018-05-31T17:26:57.883Z,65.50
2018-05-31T17:29:26.207Z,65.90
2018-05-31T17:31:54.496Z,66.50
2018-05-31T17:34:22.818Z,66.90
2018-05-31T17:36:51.123Z,67.00
2018-05-31T17:39:19.439Z,67.00
2018-05-31T17:41:47.726Z,66.30
2018-05-31T17:44:16.031Z,66.10
2018-05-31T17:46:44.323Z,66.30
2018-05-31T17:49:12.686Z,66.10
2018-05-31T17:51:40.959Z,64.10
2018-05-31T17:54:09.274Z,59.90
2018-05-31T17:56:37.563Z,55.50
2018-05-31T17:59:05.872Z,52.00
2018-05-31T18:01:34.174Z,49.40
2018-05-31T18:04:02.501Z,48.70
2018-05-31T18:06:30.802Z,47.50
2018-05-31T18:08:59.100Z,45.90
2018-05-31T18:11:27.410Z,44.90
2018-05-31T18:13:55.698Z,44.70
2018-05-31T18:16:24.018Z,44.50
2018-05-31T18:18:51.551Z,44.50
2018-05-31T18:21:19.895Z,44.30
2018-05-31T18:23:48.210Z,44.60
2018-05-31T18:26:16.563Z,45.20
2018-05-31T18:28:44.914Z,45.00
2018-05-31T18:31:13.298Z,45.80
2018-05-31T18:33:41.588Z,47.60
2018-05-31T18:36:09.915Z,49.60
2018-05-31T18:38:38.247Z,51.40
2018-05-31T18:41:06.578Z,53.30
2018-05-31T18:43:34.857Z,55.00
2018-05-31T18:46:04.180Z,56.60
2018-05-31T18:48:32.482Z,58.20
2018-05-31T18:51:00.835Z,59.40
2018-05-31T18:53:28.671Z,60.80
2018-05-31T18:55:57.008Z,61.40
2018-05-31T18:58:24.833Z,62.40
2018-05-31T19:00:52.710Z,63.80
2018-05-31T19:03:20.543Z,65.20
2018-05-31T19:05:48.396Z,66.10
2018-05-31T19:08:16.229Z,67.20
2018-05-31T19:10:44.085Z,68.30
2018-05-31T19:13:17.675Z,69.50
2018-05-31T19:15:45.526Z,70.70
2018-05-31T19:18:19.158Z,71.60
2018-05-31T19:20:47.471Z,72.50
2018-05-31T19:23:15.294Z,72.60
2018-05-31T19:25:43.621Z,72.50
2018-05-31T19:28:11.914Z,72.80
2018-05-31T19:30:45.998Z,73.50
2018-05-31T19:33:13.525Z,73.50
2018-05-31T19:35:47.422Z,75.00
2018-05-31T19:38:14.947Z,75.00
2018-05-31T19:40:43.301Z,76.60
2018-05-31T19:43:17.428Z,77.70
2018-05-31T19:45:45.752Z,78.50
2018-05-31T19:48:14.048Z,79.60
2018-05-31T19:50:42.375Z,80.70
2018-05-31T19:53:16.404Z,81.90
2018-05-31T19:55:44.709Z,83.00
2018-05-31T19:58:17.987Z,82.90
2018-05-31T20:00:51.873Z,84.40
2018-05-31T20:03:25.795Z,85.50
2018-05-31T20:05:54.110Z,87.00
2018-05-31T20:08:21.964Z,88.10
2018-05-31T20:10:50.287Z,88.90
2018-05-31T20:13:18.582Z,89.40
2018-05-31T20:15:46.870Z,89.60
2018-05-31T20:18:15.183Z,90.00
2018-05-31T20:20:43.510Z,90.20
2018-05-31T20:23:11.819Z,90.40
2018-05-31T20:25:40.107Z,90.40
2018-05-31T20:28:08.418Z,90.30
2018-05-31T20:30:36.735Z,90.50
2018-05-31T20:33:05.086Z,90.80
2018-05-31T20:35:33.382Z,90.90
2018-05-31T20:38:01.706Z,90.80
2018-05-31T20:40:29.994Z,90.80
2018-05-31T20:42:58.310Z,91.10
2018-05-31T20:45:26.602Z,91.40
2018-05-31T20:47:54.915Z,91.50
2018-05-31T20:50:23.202Z,91.50
2018-05-31T20:52:51.514Z,91.50
2018-05-31T20:55:19.806Z,91.80
2018-05-31T20:57:48.123Z,91.90
2018-05-31T21:00:16.422Z,92.00
2018-05-31T21:02:44.738Z,91.90
2018-05-31T21:05:13.034Z,91.80
2018-05-31T21:07:41.359Z,91.80
2018-05-31T21:10:09.655Z,92.00
2018-05-31T21:12:37.207Z,92.00
2018-05-31T21:15:04.738Z,92.00
2018-05-31T21:17:33.047Z,92.00
2018-05-31T21:20:01.391Z,92.00
2018-05-31T21:22:29.664Z,92.10
2018-05-31T21:24:57.982Z,92.30
2018-05-31T21:27:26.302Z,92.20
2018-05-31T21:29:54.691Z,92.20
2018-05-31T21:32:23.002Z,92.20
2018-05-31T21:34:51.753Z,92.10
2018-05-31T21:37:20.069Z,92.60
2018-05-31T21:39:48.360Z,92.70
2018-05-31T21:42:16.673Z,92.90
2018-05-31T21:44:44.970Z,93.10
2018-05-31T21:47:13.303Z,93.40
2018-05-31T21:49:41.599Z,93.50
2018-05-31T21:52:09.912Z,93.40
2018-05-31T21:54:38.242Z,93.50
2018-05-31T21:57:06.534Z,93.60
2018-05-31T21:59:34.847Z,93.60
2018-05-31T22:02:03.997Z,93.80
2018-05-31T22:04:32.315Z,93.90
2018-05-31T22:07:00.629Z,94.00
2018-05-31T22:09:28.954Z,93.80
2018-05-31T22:11:57.234Z,94.00
2018-05-31T22:14:25.551Z,94.10
2018-05-31T22:16:53.380Z,94.20
2018-05-31T22:19:21.742Z,94.30
2018-05-31T22:21:50.010Z,94.10
2018-05-31T22:24:18.327Z,94.00
2018-05-31T22:26:46.626Z,94.30
2018-05-31T22:29:14.958Z,94.30
2018-05-31T22:31:43.255Z,94.40
2018-05-31T22:34:11.571Z,94.40
2018-05-31T22:36:39.918Z,94.50
2018-05-31T22:39:08.206Z,94.50
2018-05-31T22:41:36.510Z,94.50
2018-05-31T22:44:04.826Z,94.50
2018-05-31T22:46:33.150Z,94.40
2018-05-31T22:49:01.481Z,94.40
2018-05-31T22:51:29.778Z,94.40
2018-05-31T22:53:58.090Z,94.40
2018-05-31T22:56:26.389Z,94.40
2018-05-31T22:58:54.710Z,94.50
2018-05-31T23:01:23.011Z,94.50
2018-05-31T23:03:51.330Z,94.50
2018-05-31T23:06:19.631Z,94.50
2018-05-31T23:08:47.960Z,94.30
2018-05-31T23:11:15.496Z,94.30
2018-05-31T23:13:43.810Z,94.40
2018-05-31T23:16:12.101Z,94.40
2018-05-31T23:18:40.423Z,94.40
2018-05-31T23:21:08.719Z,94.40
2018-05-31T23:23:37.041Z,94.50
2018-05-31T23:26:05.335Z,94.50
2018-05-31T23:28:33.659Z,94.50
2018-05-31T23:31:01.956Z,94.40
2018-05-31T23:33:30.246Z,94.50
2018-05-31T23:35:58.560Z,94.50
2018-05-31T23:38:26.853Z,94.70
2018-05-31T23:40:55.176Z,95.00
2018-05-31T23:43:23.472Z,94.80
2018-05-31T23:45:51.790Z,94.80
2018-05-31T23:48:20.084Z,94.90
2018-05-31T23:50:48.390Z,95.00
2018-05-31T23:53:16.683Z,95.00
2018-05-31T23:55:44.991Z,94.90
2018-05-31T23:58:13.276Z,94.90
